createdAt,value
2023-05-09T00:08:11.838Z,86.53
2023-05-09T00:18:15.210Z,86.96
2023-05-09T00:28:20.022Z,85.89
2023-05-09T00:38:24.044Z,86.10
2023-05-09T00:48:28.012Z,85.18
2023-05-09T00:58:31.356Z,84.80
2023-05-09T01:08:45.738Z,84.89
2023-05-09T01:18:52.895Z,84.49
2023-05-09T01:29:24.856Z,84.63
2023-05-09T01:39:31.746Z,84.19
2023-05-09T01:49:37.108Z,83.58
2023-05-09T01:59:42.761Z,83.45
2023-05-09T02:09:47.244Z,82.87
2023-05-09T02:19:51.203Z,82.90
2023-05-09T02:29:58.326Z,83.12
2023-05-09T02:40:02.526Z,83.36
2023-05-09T02:50:06.116Z,84.02
2023-05-09T03:00:12.316Z,84.07
2023-05-09T03:10:14.989Z,83.50
2023-05-09T03:20:19.634Z,83.31
2023-05-09T03:30:22.365Z,83.49
2023-05-09T03:40:26.392Z,84.08
2023-05-09T03:50:30.061Z,84.13
2023-05-09T04:00:34.116Z,84.15
2023-05-09T04:10:37.067Z,83.92
2023-05-09T04:20:41.253Z,84.38
2023-05-09T04:30:44.210Z,83.45
2023-05-09T04:40:48.478Z,82.86
2023-05-09T04:50:51.140Z,82.45
2023-05-09T05:00:55.077Z,81.77
2023-05-09T05:10:58.104Z,81.22
2023-05-09T05:21:02.357Z,80.94
2023-05-09T05:31:06.240Z,80.74
2023-05-09T05:41:11.283Z,80.56
2023-05-09T05:51:13.957Z,80.27
2023-05-09T06:01:17.943Z,78.87
2023-05-09T06:11:21.081Z,77.59
2023-05-09T06:21:25.017Z,77.31
2023-05-09T06:31:27.798Z,76.70
2023-05-09T06:41:31.803Z,76.48
2023-05-09T06:51:34.466Z,74.93
2023-05-09T07:01:38.526Z,73.61
2023-05-09T07:11:41.293Z,72.66
2023-05-09T07:21:45.316Z,70.71
2023-05-09T07:31:47.987Z,70.00
2023-05-09T07:41:52.001Z,69.00
2023-05-09T07:51:54.643Z,70.16
2023-05-09T08:01:58.679Z,69.45
2023-05-09T08:12:01.681Z,68.55
2023-05-09T08:22:05.767Z,69.78
2023-05-09T08:32:08.673Z,70.94
2023-05-09T08:42:15.850Z,71.30
2023-05-09T08:52:19.012Z,71.71
2023-05-09T09:02:23.251Z,71.38
2023-05-09T09:12:26.352Z,70.26
2023-05-09T09:22:33.973Z,69.74
2023-05-09T09:32:37.504Z,71.93
2023-05-09T09:42:45.126Z,69.97
2023-05-09T09:52:52.535Z,71.20
2023-05-09T10:02:58.770Z,72.11
2023-05-09T10:13:03.755Z,72.67
2023-05-09T10:23:08.954Z,73.22
2023-05-09T10:33:16.587Z,73.19
2023-05-09T10:43:23.945Z,72.88
2023-05-09T10:53:42.220Z,73.70
2023-05-09T11:03:57.389Z,75.63
2023-05-09T11:14:00.313Z,77.62
2023-05-09T11:24:17.492Z,79.94
2023-05-09T11:34:21.444Z,77.09
2023-05-09T11:44:25.542Z,73.37
2023-05-09T11:54:28.143Z,73.23
2023-05-09T12:04:33.254Z,70.07
2023-05-09T12:14:36.430Z,68.74
2023-05-09T12:24:40.658Z,59.67
2023-05-09T12:34:44.686Z,56.13
2023-05-09T12:44:51.663Z,62.24
2023-05-09T12:54:54.674Z,64.06
2023-05-09T13:05:10.752Z,66.49
2023-05-09T13:15:13.794Z,67.27
2023-05-09T13:25:19.741Z,70.29
2023-05-09T13:35:22.549Z,73.95
2023-05-09T13:45:26.522Z,79.55
2023-05-09T13:55:30.692Z,83.07
2023-05-09T14:05:35.384Z,81.87
2023-05-09T14:15:38.052Z,80.81
2023-05-09T14:25:42.274Z,79.62
2023-05-09T14:35:44.890Z,81.75
2023-05-09T14:45:48.991Z,95.49
2023-05-09T14:55:51.873Z,97.81
2023-05-09T15:05:55.904Z,99.60
2023-05-09T15:15:58.985Z,100.44
2023-05-09T15:26:03.065Z,102.47
2023-05-09T15:36:06.786Z,103.86
2023-05-09T15:46:11.065Z,103.89
2023-05-09T15:56:13.800Z,103.35
2023-05-09T16:06:17.912Z,103.32
2023-05-09T16:16:20.597Z,103.74
2023-05-09T16:26:24.885Z,103.91
2023-05-09T16:36:27.607Z,104.27
2023-05-09T16:46:31.982Z,104.31
2023-05-09T16:56:34.676Z,104.40
2023-05-09T17:06:38.753Z,104.30
2023-05-09T17:16:41.419Z,104.75
2023-05-09T17:26:45.636Z,105.16
2023-05-09T17:36:48.334Z,105.78
2023-05-09T17:46:52.375Z,106.37
2023-05-09T17:56:59.753Z,106.78
2023-05-09T18:07:04.002Z,107.11
2023-05-09T18:17:06.811Z,107.33
2023-05-09T18:27:11.649Z,107.20
2023-05-09T18:37:14.404Z,107.40
2023-05-09T18:47:18.496Z,107.28
2023-05-09T18:57:21.720Z,107.35
2023-05-09T19:07:26.335Z,107.12
2023-05-09T19:17:29.151Z,107.21
2023-05-09T19:27:33.167Z,107.08
2023-05-09T19:37:36.346Z,107.43
2023-05-09T19:47:40.650Z,107.40
2023-05-09T19:57:43.345Z,107.70
2023-05-09T20:07:47.425Z,107.49
2023-05-09T20:17:50.848Z,107.40
2023-05-09T20:27:55.118Z,107.48
2023-05-09T20:37:57.970Z,107.69
2023-05-09T20:48:04.005Z,107.62
2023-05-09T20:58:06.943Z,107.56
2023-05-09T21:08:11.406Z,107.60
2023-05-09T21:18:14.252Z,107.69
2023-05-09T21:28:18.565Z,107.68
2023-05-09T21:38:21.197Z,107.97
2023-05-09T21:48:25.233Z,107.67
2023-05-09T21:58:27.940Z,107.59
2023-05-09T22:08:32.036Z,107.98
2023-05-09T22:18:34.690Z,108.08
2023-05-09T22:28:38.910Z,108.01
2023-05-09T22:38:41.628Z,107.92
2023-05-09T22:48:45.729Z,108.01
2023-05-09T22:58:48.413Z,108.02
2023-05-09T23:08:52.652Z,107.94
2023-05-09T23:18:55.290Z,108.11
2023-05-09T23:28:59.293Z,108.04
2023-05-09T23:39:02.009Z,108.11
2023-05-09T23:49:06.113Z,107.85
2023-05-09T23:59:08.750Z,108.08
